Time;durP1;ratioP1;P1;durP2;ratioP2;P2;SDS_P1;SDS_P2;PMS_P1;PMS_P2;Temp;Humidity;BMP_temperature;BMP_pressure;BME280_temperature;BME280_humidity;BME280_pressure;Samples;Min_cycle;Max_cycle;Signal;HPM_P1;HPM_P2
2022/04/27 00:01:44;;;;;;;5.73;3.60;;;15.20;90.50;;;;;;5075082;28;20852;-70
2022/04/27 00:04:15;;;;;;;5.10;3.90;;;15.10;90.50;;;;;;5074669;28;20424;-70
2022/04/27 00:06:41;;;;;;;5.90;4.23;;;15.10;90.50;;;;;;5074625;28;20427;-71
2022/04/27 00:09:11;;;;;;;4.90;3.60;;;15.10;90.50;;;;;;5054347;28;20453;-70
2022/04/27 00:11:41;;;;;;;4.20;3.80;;;15.10;90.60;;;;;;5054392;28;20831;-70
2022/04/27 00:14:09;;;;;;;4.60;3.60;;;15.10;90.60;;;;;;5054167;28;20812;-70
2022/04/27 00:16:35;;;;;;;3.87;3.53;;;15.10;90.60;;;;;;5070959;28;20407;-70
2022/04/27 00:19:03;;;;;;;4.07;3.70;;;15.10;90.60;;;;;;5054391;28;20957;-70
2022/04/27 00:21:29;;;;;;;3.97;3.50;;;15.10;90.70;;;;;;5080945;28;20485;-70
2022/04/27 00:23:57;;;;;;;6.23;3.70;;;15.10;90.70;;;;;;5072123;28;20476;-70
2022/04/27 00:26:25;;;;;;;4.77;4.27;;;15.10;90.70;;;;;;5054034;28;20403;-70
2022/04/27 00:28:51;;;;;;;3.93;3.63;;;15.00;90.60;;;;;;5054143;28;20480;-70
2022/04/27 00:31:17;;;;;;;5.27;3.60;;;15.00;90.60;;;;;;5054022;28;20780;-70
2022/04/27 00:33:46;;;;;;;4.70;3.70;;;15.00;90.70;;;;;;5055124;28;20400;-70
2022/04/27 00:36:14;;;;;;;5.10;4.60;;;15.00;90.60;;;;;;5070491;28;20404;-70
2022/04/27 00:38:42;;;;;;;3.77;3.33;;;15.00;90.60;;;;;;5070292;28;20477;-70
2022/04/27 00:41:12;;;;;;;4.13;3.73;;;15.00;90.60;;;;;;5070397;28;20445;-70
2022/04/27 00:43:42;;;;;;;5.80;4.40;;;15.00;90.60;;;;;;5053973;28;20790;-71
2022/04/27 00:46:11;;;;;;;4.57;3.90;;;15.00;91.00;;;;;;5070476;28;20435;-70
2022/04/27 00:48:41;;;;;;;5.80;3.90;;;14.90;90.50;;;;;;5070043;28;20479;-70
2022/04/27 00:51:16;;;;;;;6.30;3.97;;;15.00;90.60;;;;;;5062060;28;20808;-70
2022/04/27 00:53:43;;;;;;;4.30;3.90;;;14.90;90.50;;;;;;5090681;28;20918;-70
2022/04/27 00:56:14;;;;;;;5.70;3.70;;;14.90;90.60;;;;;;5073567;28;20409;-70
2022/04/27 00:58:47;;;;;;;5.10;4.70;;;14.90;90.60;;;;;;5057256;28;20426;-70
2022/04/27 01:01:15;;;;;;;4.10;3.80;;;14.90;90.60;;;;;;5074433;28;20541;-70
2022/04/27 01:03:41;;;;;;;5.40;3.73;;;14.90;90.70;;;;;;5074473;28;20390;-70
2022/04/27 01:06:07;;;;;;;4.40;4.00;;;14.90;90.60;;;;;;5073110;28;20402;-70
2022/04/27 01:08:35;;;;;;;5.43;4.57;;;14.90;90.60;;;;;;5056768;28;20433;-70
2022/04/27 01:11:02;;;;;;;4.20;3.20;;;14.90;90.60;;;;;;5073279;28;20770;-70
2022/04/27 01:13:34;;;;;;;5.83;4.43;;;14.90;90.60;;;;;;5072833;28;20418;-70
2022/04/27 01:16:05;;;;;;;5.20;3.63;;;14.80;90.50;;;;;;5073076;28;20834;-70
2022/04/27 01:18:36;;;;;;;5.20;3.77;;;14.80;90.50;;;;;;5073296;28;21012;-70
2022/04/27 01:21:06;;;;;;;5.27;3.77;;;14.80;90.60;;;;;;5074151;28;20548;-70
2022/04/27 01:23:42;;;;;;;4.60;3.80;;;14.80;90.60;;;;;;5074257;28;20401;-70
2022/04/27 01:26:10;;;;;;;5.60;4.27;;;14.80;90.50;;;;;;5039850;28;20433;-70
2022/04/27 01:28:41;;;;;;;4.47;3.90;;;14.80;90.60;;;;;;5072759;28;20437;-70
2022/04/27 01:31:14;;;;;;;4.37;3.80;;;14.80;90.60;;;;;;5072873;28;20411;-70
2022/04/27 01:33:44;;;;;;;5.57;3.90;;;14.80;90.60;;;;;;5074258;28;20988;-70
2022/04/27 01:36:13;;;;;;;5.13;4.30;;;14.80;90.60;;;;;;5072756;28;20405;-70
2022/04/27 01:38:41;;;;;;;4.30;3.90;;;14.80;90.60;;;;;;5072543;28;20456;-70
2022/04/27 01:41:08;;;;;;;4.43;4.03;;;14.80;90.60;;;;;;5072148;28;20469;-70
2022/04/27 01:43:37;;;;;;;4.10;3.70;;;14.70;90.50;;;;;;5072704;28;20875;-70
2022/04/27 01:46:10;;;;;;;8.13;5.43;;;14.70;90.60;;;;;;5056224;28;20774;-70
2022/04/27 01:48:39;;;;;;;4.60;3.80;;;14.70;90.60;;;;;;5056097;28;20452;-70
2022/04/27 01:51:05;;;;;;;6.17;4.53;;;14.70;90.60;;;;;;5072344;28;20463;-70
2022/04/27 01:56:17;;;;;;;4.83;4.40;;;14.70;90.60;;;;;;5055927;28;20477;-70
2022/04/27 01:58:47;;;;;;;5.43;3.90;;;14.70;90.70;;;;;;5055644;28;20448;-70
2022/04/27 02:01:16;;;;;;;6.23;3.93;;;14.70;90.70;;;;;;5071833;28;20507;-70
2022/04/27 02:03:48;;;;;;;4.50;3.93;;;14.60;90.60;;;;;;5056307;28;20497;-70
2022/04/27 02:06:16;;;;;;;4.80;4.30;;;14.70;90.70;;;;;;5072132;28;20772;-70
2022/04/27 02:08:45;;;;;;;5.43;4.33;;;14.60;90.60;;;;;;5055650;28;20437;-70
2022/04/27 02:11:11;;;;;;;7.17;4.93;;;14.60;90.60;;;;;;5055503;28;20452;-70
2022/04/27 02:13:52;;;;;;;3.90;3.50;;;14.60;90.60;;;;;;5071719;28;20482;-72
2022/04/27 02:16:19;;;;;;;4.80;4.23;;;14.60;90.70;;;;;;5071854;28;20413;-72
2022/04/27 02:18:48;;;;;;;4.77;4.27;;;14.60;90.80;;;;;;5055204;28;20456;-72
2022/04/27 02:21:15;;;;;;;4.43;4.03;;;14.60;90.80;;;;;;5088149;28;20529;-72
2022/04/27 02:23:42;;;;;;;4.50;4.03;;;14.60;91.10;;;;;;5071879;28;20492;-72
2022/04/27 02:26:10;;;;;;;6.80;4.17;;;14.60;90.70;;;;;;5071896;28;20401;-72
2022/04/27 02:28:41;;;;;;;5.13;3.77;;;14.60;90.70;;;;;;5071679;28;20480;-72
2022/04/27 02:31:10;;;;;;;5.50;4.20;;;14.60;90.70;;;;;;5071545;28;20920;-72
2022/04/27 02:33:38;;;;;;;4.93;4.40;;;14.60;90.70;;;;;;5055569;28;20414;-72
2022/04/27 02:36:07;;;;;;;4.50;3.90;;;14.50;90.60;;;;;;5071604;28;20409;-72
2022/04/27 02:38:36;;;;;;;4.80;3.90;;;14.50;90.60;;;;;;5054941;28;20517;-72
2022/04/27 02:41:05;;;;;;;6.50;4.20;;;14.50;90.60;;;;;;5038820;28;20563;-72
2022/04/27 02:43:32;;;;;;;6.90;4.40;;;14.50;90.60;;;;;;5054728;28;20513;-72
2022/04/27 02:45:59;;;;;;;5.43;4.63;;;14.50;90.60;;;;;;5055126;28;20434;-72
2022/04/27 02:48:27;;;;;;;4.10;3.67;;;14.50;90.60;;;;;;5072668;28;20417;-72
2022/04/27 02:53:38;;;;;;;5.13;4.23;;;14.50;90.70;;;;;;5072434;28;20457;-72
2022/04/27 02:56:04;;;;;;;4.27;3.83;;;14.50;90.70;;;;;;5038087;28;20806;-72
2022/04/27 02:58:33;;;;;;;4.67;4.23;;;14.50;90.70;;;;;;5054730;28;20439;-72
2022/04/27 03:01:04;;;;;;;5.03;4.53;;;14.50;90.70;;;;;;5071105;28;20448;-72
2022/04/27 03:03:35;;;;;;;4.53;4.13;;;14.40;90.60;;;;;;5071395;28;20427;-72
2022/04/27 03:06:01;;;;;;;6.80;4.33;;;14.40;90.60;;;;;;5054760;28;20420;-72
2022/04/27 03:08:27;;;;;;;6.70;4.23;;;14.40;90.60;;;;;;5054482;28;20678;-72
2022/04/27 03:10:55;;;;;;;5.90;4.40;;;14.40;90.60;;;;;;5071550;28;20408;-72
2022/04/27 03:13:35;;;;;;;5.20;4.07;;;14.40;90.60;;;;;;5070927;28;20917;-72
2022/04/27 03:16:10;;;;;;;4.57;4.17;;;14.40;90.60;;;;;;5055978;28;20475;-72
2022/04/27 03:18:37;;;;;;;5.10;4.53;;;14.40;90.60;;;;;;5070990;28;20787;-72
2022/04/27 03:21:09;;;;;;;5.10;4.40;;;14.30;90.50;;;;;;5071828;28;20466;-72
2022/04/27 03:23:35;;;;;;;6.70;4.93;;;14.30;90.60;;;;;;5054514;28;20409;-72
2022/04/27 03:26:02;;;;;;;4.90;4.33;;;14.30;90.60;;;;;;5070984;28;20405;-72
2022/04/27 03:28:29;;;;;;;6.50;5.33;;;14.30;90.50;;;;;;5054508;28;20455;-72
2022/04/27 03:31:01;;;;;;;5.87;4.10;;;14.30;90.50;;;;;;5054394;28;20440;-72
2022/04/27 03:33:38;;;;;;;4.80;3.90;;;14.30;90.50;;;;;;5055547;28;20494;-72
2022/04/27 03:36:11;;;;;;;5.17;3.93;;;14.30;90.50;;;;;;5071218;28;20888;-72
2022/04/27 03:38:39;;;;;;;5.80;4.50;;;14.30;90.50;;;;;;5070788;28;20459;-73
2022/04/27 03:41:05;;;;;;;5.90;4.37;;;14.30;90.50;;;;;;5054228;28;20446;-72
2022/04/27 03:43:33;;;;;;;7.20;4.23;;;14.20;90.50;;;;;;5070829;28;20406;-72
2022/04/27 03:46:02;;;;;;;5.23;4.73;;;14.20;90.50;;;;;;5070633;28;20406;-72
2022/04/27 03:48:29;;;;;;;4.33;3.93;;;14.20;90.50;;;;;;5070718;28;20433;-72
2022/04/27 03:50:56;;;;;;;5.40;4.57;;;14.20;90.50;;;;;;5070425;28;20433;-72
2022/04/27 03:53:24;;;;;;;5.30;4.70;;;14.20;90.50;;;;;;5070832;28;20832;-72
2022/04/27 03:55:53;;;;;;;6.70;4.40;;;14.20;90.50;;;;;;5070797;28;20417;-72
2022/04/27 03:58:22;;;;;;;5.87;4.23;;;14.20;90.50;;;;;;5070521;28;20429;-72
2022/04/27 04:00:48;;;;;;;6.80;4.43;;;14.20;90.50;;;;;;5054208;28;20944;-72
2022/04/27 04:03:20;;;;;;;5.20;4.30;;;14.20;90.50;;;;;;5070656;28;20440;-72
2022/04/27 04:05:46;;;;;;;5.60;4.97;;;14.20;90.50;;;;;;5087454;28;20412;-72
2022/04/27 04:08:12;;;;;;;4.97;4.50;;;14.10;90.40;;;;;;5070615;28;20459;-73
2022/04/27 04:10:41;;;;;;;5.80;4.23;;;14.10;90.50;;;;;;5037779;28;20750;-72
2022/04/27 04:13:10;;;;;;;6.13;4.30;;;14.10;90.50;;;;;;5086693;28;20515;-72
2022/04/27 04:15:41;;;;;;;4.70;4.20;;;14.10;90.40;;;;;;5070785;28;20911;-72
2022/04/27 04:18:36;;;;;;;4.90;4.27;;;14.10;90.50;;;;;;5051989;28;20441;-72
2022/04/27 04:21:34;;;;;;;5.00;4.50;;;14.10;90.40;;;;;;5047738;28;20834;-72
2022/04/27 04:24:04;;;;;;;5.43;4.60;;;14.10;90.40;;;;;;5056618;28;20454;-72
2022/04/27 04:29:24;;;;;;;7.80;4.10;;;14.00;90.30;;;;;;5074313;28;20401;-72
2022/04/27 04:31:51;;;;;;;4.93;4.43;;;14.00;90.30;;;;;;5073684;28;20423;-72
2022/04/27 04:34:36;;;;;;;5.30;4.47;;;14.00;90.30;;;;;;5074007;28;20475;-72
2022/04/27 04:37:03;;;;;;;5.40;4.50;;;14.00;90.70;;;;;;5057380;28;20815;-72
2022/04/27 04:39:30;;;;;;;6.30;4.67;;;14.00;90.30;;;;;;5053856;28;20448;-72
2022/04/27 04:41:58;;;;;;;5.23;4.40;;;14.00;90.30;;;;;;5070005;28;20462;-72
2022/04/27 04:44:26;;;;;;;6.57;4.60;;;14.00;90.30;;;;;;5070362;28;20948;-72
2022/04/27 04:47:22;;;;;;;5.20;4.70;;;13.90;90.30;;;;;;5054289;28;20311;-72
2022/04/27 04:50:12;;;;;;;6.00;4.70;;;13.90;90.30;;;;;;5070637;28;20459;-71
2022/04/27 04:53:13;;;;;;;4.93;4.20;;;13.90;90.30;;;;;;5053574;28;20479;-72
2022/04/27 04:55:55;;;;;;;4.87;4.43;;;13.90;90.20;;;;;;5070275;28;20397;-72
2022/04/27 04:58:36;;;;;;;6.30;4.80;;;13.90;90.30;;;;;;5054580;28;20840;-72
2022/04/27 05:01:20;;;;;;;5.07;4.57;;;13.90;90.30;;;;;;5069920;28;20459;-72
2022/04/27 05:04:07;;;;;;;6.73;4.50;;;13.90;90.30;;;;;;5053603;28;20421;-72
2022/04/27 05:06:51;;;;;;;7.97;5.00;;;13.90;90.30;;;;;;5053611;28;20954;-72
2022/04/27 05:09:28;;;;;;;5.13;4.63;;;13.90;90.30;;;;;;5073114;28;20436;-72
2022/04/27 05:12:12;;;;;;;7.13;4.40;;;13.80;90.20;;;;;;5072721;28;20940;-72
2022/04/27 05:15:00;;;;;;;5.50;4.77;;;13.80;90.20;;;;;;5054233;28;20457;-72
2022/04/27 05:17:40;;;;;;;7.60;4.77;;;13.80;90.30;;;;;;5074171;28;20426;-72
2022/04/27 05:20:19;;;;;;;4.77;4.27;;;13.80;90.30;;;;;;5072916;28;20989;-72
2022/04/27 05:23:06;;;;;;;5.77;4.53;;;13.80;90.30;;;;;;5062864;28;20432;-72
2022/04/27 05:25:52;;;;;;;5.33;4.83;;;13.80;90.30;;;;;;5073007;28;20487;-72
2022/04/27 05:31:55;;;;;;;6.60;4.53;;;13.80;90.40;;;;;;5074125;28;20938;-72
2022/04/27 05:34:30;;;;;;;5.27;4.40;;;13.70;90.30;;;;;;5055254;28;20504;-72
2022/04/27 05:37:03;;;;;;;6.00;4.20;;;13.70;90.30;;;;;;5056834;28;20849;-72
2022/04/27 05:40:02;;;;;;;6.07;4.20;;;13.70;90.40;;;;;;5072787;28;20402;-72
2022/04/27 05:42:53;;;;;;;7.70;4.93;;;13.70;90.40;;;;;;5066661;28;20478;-72
2022/04/27 05:45:40;;;;;;;5.30;4.80;;;13.70;90.40;;;;;;5072828;28;20495;-72
2022/04/27 05:48:17;;;;;;;11.90;5.00;;;13.70;90.40;;;;;;5056009;28;20447;-72
2022/04/27 05:51:03;;;;;;;5.10;4.50;;;13.70;90.40;;;;;;5068642;28;20453;-72
2022/04/27 05:53:44;;;;;;;5.37;4.73;;;13.70;90.40;;;;;;5073603;28;20412;-72
2022/04/27 05:56:29;;;;;;;5.27;4.37;;;13.70;90.50;;;;;;5073593;28;20444;-72
2022/04/27 05:59:30;;;;;;;6.00;4.77;;;13.60;90.40;;;;;;5072151;28;20933;-72
2022/04/27 06:02:15;;;;;;;6.00;4.50;;;13.60;90.40;;;;;;5062675;28;20458;-72
2022/04/27 06:04:45;;;;;;;6.70;4.93;;;13.60;90.40;;;;;;5041863;28;20428;-72
2022/04/27 06:07:17;;;;;;;6.87;5.50;;;13.60;90.50;;;;;;5068645;28;20501;-72
2022/04/27 06:09:42;;;;;;;5.03;4.43;;;13.60;90.40;;;;;;5068623;28;20411;-72
2022/04/27 06:12:25;;;;;;;8.13;5.60;;;13.60;90.40;;;;;;5051827;28;20835;-72
2022/04/27 06:15:11;;;;;;;5.67;5.10;;;13.60;90.40;;;;;;5054698;28;20510;-72
2022/04/27 06:17:41;;;;;;;6.23;4.73;;;13.60;90.40;;;;;;5044328;28;20459;-72
2022/04/27 06:20:09;;;;;;;5.50;4.67;;;13.60;90.50;;;;;;5068528;28;20464;-72
2022/04/27 06:22:37;;;;;;;5.57;4.53;;;13.60;90.50;;;;;;5085104;28;20460;-72
2022/04/27 06:25:06;;;;;;;9.03;4.57;;;13.60;90.50;;;;;;5068222;28;20410;-72
2022/04/27 06:27:41;;;;;;;9.27;4.87;;;13.60;90.50;;;;;;5051925;28;20456;-72
2022/04/27 06:30:10;;;;;;;5.37;4.70;;;13.60;90.50;;;;;;5085364;28;20391;-72
2022/04/27 06:32:39;;;;;;;7.87;5.60;;;13.60;90.50;;;;;;5085195;28;20420;-72
2022/04/27 06:35:13;;;;;;;7.30;5.20;;;13.60;90.50;;;;;;5035217;28;20428;-72
2022/04/27 06:37:42;;;;;;;7.90;4.40;;;13.60;90.50;;;;;;5051747;28;20957;-72
2022/04/27 06:40:14;;;;;;;5.77;4.77;;;13.60;90.50;;;;;;5071504;28;20404;-72
2022/04/27 06:42:44;;;;;;;5.53;4.50;;;13.60;90.50;;;;;;5054795;28;20475;-72
2022/04/27 06:45:36;;;;;;;5.13;4.10;;;13.60;90.50;;;;;;5061896;28;20445;-72
2022/04/27 06:48:20;;;;;;;7.20;4.50;;;13.60;90.50;;;;;;5072637;28;20447;-72
2022/04/27 06:51:12;;;;;;;5.73;4.63;;;13.60;91.00;;;;;;5064074;28;20434;-72
2022/04/27 06:53:57;;;;;;;6.13;4.40;;;13.50;90.50;;;;;;5072458;28;20443;-72
2022/04/27 06:56:41;;;;;;;6.10;4.73;;;13.50;90.60;;;;;;5071744;28;20419;-72
2022/04/27 06:59:31;;;;;;;7.03;4.90;;;13.50;90.60;;;;;;5071110;28;20480;-72
2022/04/27 07:02:03;;;;;;;6.63;5.00;;;13.60;90.70;;;;;;5087744;28;20447;-72
2022/04/27 07:04:32;;;;;;;7.40;5.20;;;13.50;90.60;;;;;;5071193;28;20492;-72
2022/04/27 07:07:04;;;;;;;5.60;4.73;;;13.60;90.70;;;;;;5071165;28;20831;-72
2022/04/27 07:09:31;;;;;;;5.63;4.50;;;13.60;90.70;;;;;;5072389;28;20498;-72
2022/04/27 07:11:57;;;;;;;5.60;4.33;;;13.60;90.60;;;;;;5071064;28;20410;-72
2022/04/27 07:14:23;;;;;;;4.87;4.37;;;13.60;90.60;;;;;;5071823;28;20431;-72
2022/04/27 07:16:52;;;;;;;4.90;4.40;;;13.60;90.60;;;;;;5072640;28;20913;-72
2022/04/27 07:19:18;;;;;;;5.93;4.30;;;13.60;90.60;;;;;;5071215;28;20413;-72
2022/04/27 07:21:43;;;;;;;5.13;3.77;;;13.60;90.60;;;;;;5054503;28;20209;-72
2022/04/27 07:24:12;;;;;;;6.80;4.53;;;13.60;90.60;;;;;;5072538;28;20416;-72
2022/04/27 07:26:40;;;;;;;7.97;4.57;;;13.60;90.60;;;;;;5071721;28;20171;-72
2022/04/27 07:29:09;;;;;;;4.93;4.03;;;13.60;90.60;;;;;;5070982;28;20521;-72
2022/04/27 07:31:34;;;;;;;7.07;4.40;;;13.60;90.60;;;;;;5072162;28;20548;-72
2022/04/27 07:34:03;;;;;;;4.50;4.10;;;13.70;90.60;;;;;;5071035;28;20412;-72
2022/04/27 07:36:32;;;;;;;5.13;3.87;;;13.60;90.60;;;;;;5071136;28;20439;-72
2022/04/27 07:39:00;;;;;;;4.67;4.23;;;13.70;90.60;;;;;;5071970;28;20541;-72
2022/04/27 07:41:28;;;;;;;4.23;3.83;;;13.70;91.00;;;;;;5070604;28;20457;-72
2022/04/27 07:43:57;;;;;;;5.60;4.40;;;13.70;90.60;;;;;;5054648;28;20659;-72
2022/04/27 07:46:26;;;;;;;6.73;3.70;;;13.70;90.60;;;;;;5070968;28;20398;-72
2022/04/27 07:48:52;;;;;;;4.90;4.47;;;13.70;90.60;;;;;;5070989;28;20447;-72
2022/04/27 07:51:21;;;;;;;6.57;4.40;;;13.70;90.60;;;;;;5071618;28;20566;-72
2022/04/27 07:53:49;;;;;;;4.30;3.90;;;13.70;90.60;;;;;;5070668;28;20517;-72
2022/04/27 07:56:18;;;;;;;5.50;4.47;;;13.70;90.60;;;;;;5071852;28;20493;-72
2022/04/27 07:58:49;;;;;;;4.57;4.03;;;13.70;90.50;;;;;;5073461;28;20986;-72
2022/04/27 08:01:20;;;;;;;5.83;4.73;;;13.70;90.50;;;;;;5058270;28;20456;-72
2022/04/27 08:03:46;;;;;;;4.70;3.87;;;13.80;90.50;;;;;;5075815;28;20425;-72
2022/04/27 08:06:14;;;;;;;4.80;4.30;;;13.80;90.50;;;;;;5074640;28;20827;-72
2022/04/27 08:08:40;;;;;;;5.83;4.53;;;13.80;90.50;;;;;;5074120;28;20221;-72
2022/04/27 08:11:07;;;;;;;4.87;4.20;;;13.80;90.50;;;;;;5074662;28;20404;-72
2022/04/27 08:13:34;;;;;;;4.57;3.87;;;13.80;90.40;;;;;;5074342;28;20405;-72
2022/04/27 08:16:00;;;;;;;5.50;3.87;;;13.80;90.40;;;;;;5057722;28;20492;-72
2022/04/27 08:18:28;;;;;;;5.40;4.07;;;13.80;90.40;;;;;;5075461;28;20473;-72
2022/04/27 08:23:40;;;;;;;7.30;4.30;;;13.90;90.40;;;;;;5074208;28;20453;-72
2022/04/27 08:26:10;;;;;;;4.57;4.10;;;13.80;90.30;;;;;;5075001;28;20855;-72
2022/04/27 08:28:45;;;;;;;5.30;4.50;;;13.90;90.40;;;;;;5075311;28;20423;-72
2022/04/27 08:31:18;;;;;;;8.63;4.53;;;13.90;90.30;;;;;;5090924;28;20451;-72
2022/04/27 08:33:46;;;;;;;6.10;4.07;;;14.00;90.30;;;;;;5075337;28;20823;-72
2022/04/27 08:36:15;;;;;;;5.80;3.90;;;13.90;90.20;;;;;;5075176;28;20450;-72
2022/04/27 08:38:43;;;;;;;4.20;3.80;;;14.00;90.20;;;;;;5053912;28;20991;-72
2022/04/27 08:41:13;;;;;;;3.83;3.53;;;14.00;90.20;;;;;;5054962;28;20453;-72
2022/04/27 08:43:41;;;;;;;5.20;4.53;;;14.00;90.20;;;;;;5030379;28;20473;-72
2022/04/27 08:46:08;;;;;;;6.03;4.10;;;14.00;90.10;;;;;;5054744;28;20454;-72
2022/04/27 08:48:34;;;;;;;6.33;4.20;;;14.10;90.20;;;;;;5054858;28;20421;-72
2022/04/27 08:51:03;;;;;;;5.40;3.37;;;14.10;90.30;;;;;;5054786;28;20455;-72
2022/04/27 08:53:34;;;;;;;4.63;3.83;;;14.10;90.20;;;;;;5037219;28;20993;-72
2022/04/27 08:56:03;;;;;;;3.80;3.50;;;14.10;90.20;;;;;;5054852;28;20904;-72
2022/04/27 08:58:29;;;;;;;4.80;3.97;;;14.20;90.10;;;;;;5054532;28;20435;-72
2022/04/27 09:00:59;;;;;;;4.20;3.60;;;14.20;90.10;;;;;;5054469;28;20414;-72
2022/04/27 09:03:30;;;;;;;4.40;3.87;;;14.20;90.00;;;;;;5070364;28;20467;-72
2022/04/27 09:06:04;;;;;;;3.70;3.20;;;14.20;90.00;;;;;;5053605;28;20439;-72
2022/04/27 09:08:43;;;;;;;6.23;3.90;;;14.30;90.00;;;;;;5054382;28;20438;-72
2022/04/27 09:11:21;;;;;;;5.70;3.87;;;14.30;90.30;;;;;;5054257;28;20478;-72
2022/04/27 09:13:52;;;;;;;8.67;4.53;;;14.30;89.70;;;;;;5056747;28;20445;-72
2022/04/27 09:16:21;;;;;;;6.80;3.73;;;14.30;89.50;;;;;;5090228;28;20960;-72
2022/04/27 09:21:59;;;;;;;5.43;3.90;;;14.40;89.50;;;;;;5052605;28;20470;-72
2022/04/27 09:24:27;;;;;;;6.00;4.27;;;14.50;89.50;;;;;;5054355;28;20434;-72
2022/04/27 09:27:24;;;;;;;4.90;4.20;;;14.50;89.60;;;;;;5036560;28;20949;-72
2022/04/27 09:30:01;;;;;;;6.03;4.33;;;14.50;89.50;;;;;;5054078;28;20493;-72
2022/04/27 09:32:30;;;;;;;5.90;4.00;;;14.60;89.50;;;;;;5052881;28;20769;-72
2022/04/27 09:35:00;;;;;;;4.70;3.40;;;14.60;89.50;;;;;;5020118;28;20783;-73
2022/04/27 09:37:41;;;;;;;4.30;3.90;;;14.60;89.40;;;;;;5052760;28;20779;-73
2022/04/27 09:40:11;;;;;;;4.40;3.90;;;14.70;89.40;;;;;;5071177;28;20959;-72
2022/04/27 09:42:43;;;;;;;5.37;4.10;;;14.70;89.30;;;;;;5073771;28;20444;-72
2022/04/27 09:45:20;;;;;;;5.40;4.17;;;14.70;89.30;;;;;;5072871;28;20467;-72
2022/04/27 09:47:53;;;;;;;4.70;4.23;;;14.80;89.30;;;;;;5072558;28;20451;-73
2022/04/27 09:50:20;;;;;;;4.70;4.20;;;14.80;89.10;;;;;;5073628;28;20409;-72
2022/04/27 09:52:47;;;;;;;5.80;3.80;;;14.80;89.00;;;;;;5055846;28;20797;-72
2022/04/27 09:55:13;;;;;;;4.67;4.27;;;14.90;89.00;;;;;;5055862;28;20424;-72
2022/04/27 09:57:41;;;;;;;6.20;4.10;;;14.90;89.80;;;;;;5073579;28;20451;-71
2022/04/27 10:00:14;;;;;;;5.70;4.77;;;14.90;89.00;;;;;;5073665;28;20403;-71
2022/04/27 10:02:43;;;;;;;4.70;3.77;;;15.00;89.00;;;;;;5073474;28;20906;-71
2022/04/27 10:05:09;;;;;;;4.80;3.83;;;15.00;88.90;;;;;;5055612;28;20473;-71
2022/04/27 10:07:40;;;;;;;6.00;3.40;;;15.10;89.00;;;;;;5039078;28;20531;-70
2022/04/27 10:10:07;;;;;;;4.53;3.90;;;15.10;89.00;;;;;;5055667;28;20414;-71
2022/04/27 10:12:41;;;;;;;6.73;4.27;;;15.10;89.00;;;;;;5072266;28;20974;-70
2022/04/27 10:15:08;;;;;;;6.80;4.20;;;15.20;88.90;;;;;;5072012;28;20416;-71
2022/04/27 10:17:37;;;;;;;5.27;4.77;;;15.20;88.80;;;;;;5071925;28;20434;-70
2022/04/27 10:20:30;;;;;;;6.50;4.23;;;15.30;88.80;;;;;;5071636;28;20408;-71
2022/04/27 10:23:24;;;;;;;6.70;4.00;;;15.30;88.70;;;;;;5053117;28;20498;-71
2022/04/27 10:26:11;;;;;;;4.87;4.13;;;15.30;88.60;;;;;;5052503;28;20449;-71
2022/04/27 10:28:43;;;;;;;4.60;3.97;;;15.40;88.60;;;;;;5068411;28;20466;-71
2022/04/27 10:31:10;;;;;;;5.40;3.90;;;15.40;88.50;;;;;;5053247;28;20891;-71
2022/04/27 10:33:50;;;;;;;6.10;3.90;;;15.40;88.40;;;;;;5052976;28;20420;-71
2022/04/27 10:36:20;;;;;;;7.60;3.97;;;15.50;88.50;;;;;;5035197;28;20493;-71
2022/04/27 10:39:11;;;;;;;4.90;4.40;;;15.50;88.40;;;;;;5052209;28;20503;-70
2022/04/27 10:41:42;;;;;;;6.03;4.20;;;15.60;88.40;;;;;;5071413;28;20483;-71
2022/04/27 10:44:08;;;;;;;5.63;4.17;;;15.60;88.30;;;;;;5071656;28;20403;-71
2022/04/27 10:46:44;;;;;;;5.53;4.53;;;15.60;88.00;;;;;;5072704;28;20391;-70
2022/04/27 10:49:30;;;;;;;5.40;4.67;;;15.70;88.30;;;;;;5072496;28;20433;-70
2022/04/27 10:52:03;;;;;;;6.23;4.20;;;15.70;88.00;;;;;;5071514;28;20540;-71
2022/04/27 10:54:31;;;;;;;5.50;4.80;;;15.70;87.80;;;;;;5072629;28;20895;-71
2022/04/27 10:57:16;;;;;;;6.23;3.80;;;15.80;87.80;;;;;;5072695;28;20412;-71
2022/04/27 11:00:02;;;;;;;5.30;4.50;;;15.80;87.60;;;;;;5071427;28;20485;-70
2022/04/27 11:02:35;;;;;;;3.93;3.60;;;15.90;87.60;;;;;;5071155;28;20573;-71
2022/04/27 11:05:03;;;;;;;5.07;4.57;;;15.90;87.30;;;;;;5071407;28;20512;-71
2022/04/27 11:07:39;;;;;;;6.43;4.57;;;15.90;87.30;;;;;;5071886;28;20476;-70
2022/04/27 11:10:14;;;;;;;8.40;4.90;;;16.00;87.20;;;;;;5072421;28;20400;-70
2022/04/27 11:12:46;;;;;;;5.20;4.70;;;16.00;87.00;;;;;;5072263;28;21065;-70
2022/04/27 11:15:25;;;;;;;5.47;4.97;;;16.10;87.00;;;;;;5054562;28;20433;-71
2022/04/27 11:18:04;;;;;;;5.10;4.40;;;16.10;86.80;;;;;;5070999;28;20491;-70
2022/04/27 11:20:35;;;;;;;5.20;4.10;;;16.10;86.70;;;;;;5072189;28;20410;-71
2022/04/27 11:23:11;;;;;;;7.90;4.73;;;16.20;86.80;;;;;;5054387;28;20516;-71
2022/04/27 11:25:40;;;;;;;7.23;5.33;;;16.20;86.60;;;;;;5070584;28;20946;-71
2022/04/27 11:28:11;;;;;;;4.80;4.30;;;16.20;86.50;;;;;;5071475;28;20512;-71
2022/04/27 11:30:41;;;;;;;5.20;4.20;;;16.30;86.40;;;;;;5071989;28;20407;-70
2022/04/27 11:33:11;;;;;;;6.10;4.10;;;16.30;86.20;;;;;;5072682;28;20792;-70
2022/04/27 11:35:38;;;;;;;5.90;4.40;;;16.40;86.20;;;;;;5075417;28;20817;-71
2022/04/27 11:38:08;;;;;;;6.60;4.93;;;16.40;85.90;;;;;;5076135;28;20821;-71
2022/04/27 11:40:38;;;;;;;5.63;4.30;;;16.40;85.80;;;;;;5075100;28;20418;-71
2022/04/27 11:43:05;;;;;;;7.33;4.90;;;16.50;85.90;;;;;;5075995;28;20439;-70
2022/04/27 11:45:31;;;;;;;6.73;4.13;;;16.50;85.80;;;;;;5058276;28;20408;-71
2022/04/27 11:48:06;;;;;;;5.77;5.00;;;16.50;85.70;;;;;;5074885;28;20519;-71
2022/04/27 11:50:36;;;;;;;7.43;4.33;;;16.60;85.90;;;;;;5091793;28;20401;-70
2022/04/27 11:53:07;;;;;;;5.13;4.00;;;16.60;85.70;;;;;;5076024;28;20483;-71
2022/04/27 11:55:36;;;;;;;4.57;4.17;;;16.70;85.70;;;;;;5058217;28;20454;-71
2022/04/27 11:58:06;;;;;;;6.37;4.57;;;16.70;85.80;;;;;;5074864;28;20454;-70
2022/04/27 12:00:35;;;;;;;7.20;4.60;;;16.70;85.60;;;;;;5074397;28;20862;-70
2022/04/27 12:03:07;;;;;;;7.93;4.53;;;16.80;85.70;;;;;;5074208;28;20884;-71
2022/04/27 12:05:36;;;;;;;9.40;4.83;;;16.80;85.50;;;;;;5074655;28;20388;-71
2022/04/27 12:08:11;;;;;;;7.17;4.37;;;16.80;85.40;;;;;;5075792;28;20422;-70
2022/04/27 12:10:44;;;;;;;7.60;4.70;;;16.90;85.30;;;;;;5075566;28;20438;-71
2022/04/27 12:13:11;;;;;;;6.10;4.20;;;16.90;85.00;;;;;;5074455;28;20410;-71
2022/04/27 12:15:39;;;;;;;7.30;4.53;;;16.90;85.00;;;;;;5055562;28;20449;-71
2022/04/27 12:18:13;;;;;;;6.43;4.07;;;17.00;85.10;;;;;;5055529;28;20456;-71
2022/04/27 12:20:43;;;;;;;5.20;4.30;;;17.00;84.60;;;;;;5053915;28;20474;-70
2022/04/27 12:23:25;;;;;;;6.60;4.90;;;17.00;84.30;;;;;;5037441;28;20468;-71
2022/04/27 12:25:59;;;;;;;7.00;4.30;;;17.10;84.50;;;;;;5054987;28;20871;-71
2022/04/27 12:28:26;;;;;;;6.27;4.50;;;17.10;84.50;;;;;;5054270;28;20435;-71
2022/04/27 12:30:58;;;;;;;4.87;4.23;;;17.10;84.50;;;;;;5054107;28;20432;-71
2022/04/27 12:33:44;;;;;;;6.73;4.00;;;17.20;84.50;;;;;;5055220;28;20387;-70
2022/04/27 12:39:06;;;;;;;5.63;4.00;;;17.20;84.50;;;;;;5055327;28;20467;-70
2022/04/27 12:41:47;;;;;;;9.17;4.00;;;17.30;84.60;;;;;;5069302;28;20561;-71
2022/04/27 12:44:34;;;;;;;5.03;3.80;;;17.30;84.60;;;;;;5062076;28;20412;-70
2022/04/27 12:47:07;;;;;;;6.10;5.03;;;17.40;84.60;;;;;;5074995;28;20440;-71
2022/04/27 12:49:40;;;;;;;5.93;4.20;;;17.40;84.60;;;;;;5074046;28;20807;-70
2022/04/27 12:52:23;;;;;;;4.50;3.80;;;17.40;84.40;;;;;;5074651;28;20420;-70
2022/04/27 12:55:08;;;;;;;6.37;3.90;;;17.40;84.40;;;;;;5073900;28;20419;-71
2022/04/27 12:57:59;;;;;;;7.03;3.83;;;17.50;84.40;;;;;;5057025;28;20444;-71
2022/04/27 13:00:48;;;;;;;6.60;4.20;;;17.50;84.20;;;;;;5074869;28;20403;-72
2022/04/27 13:03:19;;;;;;;6.40;4.20;;;17.60;84.20;;;;;;5073596;28;20458;-73
2022/04/27 13:05:50;;;;;;;4.87;4.37;;;17.60;84.10;;;;;;5040995;28;20499;-73
2022/04/27 13:08:21;;;;;;;6.03;4.27;;;17.60;83.90;;;;;;5057156;28;20984;-72
2022/04/27 13:13:34;;;;;;;7.10;4.50;;;17.70;83.90;;;;;;5074314;28;20494;-73
2022/04/27 13:16:08;;;;;;;8.93;4.60;;;17.70;83.00;;;;;;5073387;28;20392;-73
2022/04/27 13:18:34;;;;;;;6.03;4.00;;;17.80;83.00;;;;;;5073350;28;20703;-72
2022/04/27 13:21:05;;;;;;;4.43;3.97;;;17.80;83.00;;;;;;5072898;28;20389;-72
2022/04/27 13:23:34;;;;;;;5.10;4.10;;;17.80;83.00;;;;;;5074322;28;20401;-72
2022/04/27 13:26:02;;;;;;;7.77;4.47;;;17.90;83.00;;;;;;5072853;28;20448;-73
2022/04/27 13:28:29;;;;;;;4.80;4.30;;;17.90;83.00;;;;;;5056568;28;20452;-73
2022/04/27 13:30:57;;;;;;;7.43;4.00;;;18.00;83.20;;;;;;5073192;28;20793;-73
2022/04/27 13:33:23;;;;;;;4.93;4.33;;;18.00;83.00;;;;;;5073066;28;20416;-72
2022/04/27 13:35:53;;;;;;;6.80;4.10;;;18.00;82.70;;;;;;5056181;28;20965;-72
2022/04/27 13:38:22;;;;;;;6.30;4.47;;;18.00;82.60;;;;;;5072662;28;20506;-72